sensor_id;sensor_type;location;lat;lon;timestamp;P1;durP1;ratioP1;P2;durP2;ratioP2
75488;SDS011;64069;46.396;48.102;2023-07-09T00:00:25;18.65;;;4.65;;
75488;SDS011;64069;46.396;48.102;2023-07-09T00:02:51;17.90;;;4.55;;
75488;SDS011;64069;46.396;48.102;2023-07-09T00:05:22;8.00;;;4.20;;
75488;SDS011;64069;46.396;48.102;2023-07-09T00:07:56;10.30;;;3.83;;
75488;SDS011;64069;46.396;48.102;2023-07-09T00:10:28;13.27;;;4.38;;
75488;SDS011;64069;46.396;48.102;2023-07-09T00:12:54;8.95;;;4.20;;
75488;SDS011;64069;46.396;48.102;2023-07-09T00:15:27;10.25;;;4.10;;
75488;SDS011;64069;46.396;48.102;2023-07-09T00:18:00;8.77;;;4.18;;
75488;SDS011;64069;46.396;48.102;2023-07-09T00:20:25;7.82;;;3.85;;
75488;SDS011;64069;46.396;48.102;2023-07-09T00:22:57;17.60;;;4.70;;
75488;SDS011;64069;46.396;48.102;2023-07-09T00:25:30;7.80;;;3.70;;
75488;SDS011;64069;46.396;48.102;2023-07-09T00:27:56;7.75;;;3.80;;
75488;SDS011;64069;46.396;48.102;2023-07-09T00:30:29;8.00;;;3.67;;
75488;SDS011;64069;46.396;48.102;2023-07-09T00:33:02;7.28;;;3.50;;
75488;SDS011;64069;46.396;48.102;2023-07-09T00:35:29;9.23;;;4.05;;
75488;SDS011;64069;46.396;48.102;2023-07-09T00:38:03;15.73;;;4.47;;
75488;SDS011;64069;46.396;48.102;2023-07-09T00:40:35;12.63;;;3.88;;
75488;SDS011;64069;46.396;48.102;2023-07-09T00:43:01;11.50;;;3.50;;
75488;SDS011;64069;46.396;48.102;2023-07-09T00:45:34;14.40;;;3.80;;
75488;SDS011;64069;46.396;48.102;2023-07-09T00:48:06;11.52;;;3.60;;
75488;SDS011;64069;46.396;48.102;2023-07-09T00:50:48;8.38;;;3.33;;
75488;SDS011;64069;46.396;48.102;2023-07-09T00:53:27;9.20;;;4.22;;
75488;SDS011;64069;46.396;48.102;2023-07-09T00:56:03;11.43;;;2.85;;
75488;SDS011;64069;46.396;48.102;2023-07-09T00:58:47;11.60;;;3.67;;
75488;SDS011;64069;46.396;48.102;2023-07-09T01:01:21;7.88;;;3.30;;
75488;SDS011;64069;46.396;48.102;2023-07-09T01:03:52;6.72;;;3.55;;
75488;SDS011;64069;46.396;48.102;2023-07-09T01:06:36;12.38;;;3.42;;
75488;SDS011;64069;46.396;48.102;2023-07-09T01:09:12;24.70;;;4.68;;
75488;SDS011;64069;46.396;48.102;2023-07-09T01:11:45;17.88;;;4.43;;
75488;SDS011;64069;46.396;48.102;2023-07-09T01:14:34;9.15;;;3.83;;
75488;SDS011;64069;46.396;48.102;2023-07-09T01:17:10;6.47;;;3.70;;
75488;SDS011;64069;46.396;48.102;2023-07-09T01:19:38;9.13;;;4.43;;
75488;SDS011;64069;46.396;48.102;2023-07-09T01:22:16;10.07;;;4.28;;
75488;SDS011;64069;46.396;48.102;2023-07-09T01:27:24;10.98;;;3.95;;
75488;SDS011;64069;46.396;48.102;2023-07-09T01:29:59;8.07;;;4.47;;
75488;SDS011;64069;46.396;48.102;2023-07-09T01:32:27;10.38;;;4.35;;
75488;SDS011;64069;46.396;48.102;2023-07-09T01:35:01;14.23;;;6.05;;
75488;SDS011;64069;46.396;48.102;2023-07-09T01:37:38;16.95;;;6.40;;
75488;SDS011;64069;46.396;48.102;2023-07-09T01:40:06;19.40;;;6.60;;
75488;SDS011;64069;46.396;48.102;2023-07-09T01:42:41;17.20;;;6.90;;
75488;SDS011;64069;46.396;48.102;2023-07-09T01:45:14;13.80;;;5.28;;
75488;SDS011;64069;46.396;48.102;2023-07-09T01:47:40;12.98;;;5.65;;
75488;SDS011;64069;46.396;48.102;2023-07-09T01:50:14;18.20;;;5.88;;
75488;SDS011;64069;46.396;48.102;2023-07-09T01:52:49;14.48;;;5.63;;
75488;SDS011;64069;46.396;48.102;2023-07-09T01:55:22;20.92;;;6.35;;
75488;SDS011;64069;46.396;48.102;2023-07-09T01:57:48;19.77;;;6.70;;
75488;SDS011;64069;46.396;48.102;2023-07-09T02:00:23;20.17;;;7.15;;
75488;SDS011;64069;46.396;48.102;2023-07-09T02:02:55;21.65;;;7.70;;
75488;SDS011;64069;46.396;48.102;2023-07-09T02:05:23;20.60;;;7.07;;
75488;SDS011;64069;46.396;48.102;2023-07-09T02:07:56;23.70;;;7.38;;
75488;SDS011;64069;46.396;48.102;2023-07-09T02:10:29;21.60;;;7.38;;
75488;SDS011;64069;46.396;48.102;2023-07-09T02:12:55;37.72;;;13.25;;
75488;SDS011;64069;46.396;48.102;2023-07-09T02:15:28;32.05;;;11.00;;
75488;SDS011;64069;46.396;48.102;2023-07-09T02:18:02;31.73;;;12.30;;
75488;SDS011;64069;46.396;48.102;2023-07-09T02:20:28;26.95;;;10.60;;
75488;SDS011;64069;46.396;48.102;2023-07-09T02:23:01;20.95;;;7.85;;
75488;SDS011;64069;46.396;48.102;2023-07-09T02:25:34;18.42;;;6.53;;
75488;SDS011;64069;46.396;48.102;2023-07-09T02:28:00;17.38;;;6.07;;
75488;SDS011;64069;46.396;48.102;2023-07-09T02:30:32;24.42;;;8.57;;
75488;SDS011;64069;46.396;48.102;2023-07-09T02:33:04;30.08;;;10.55;;
75488;SDS011;64069;46.396;48.102;2023-07-09T02:35:30;27.80;;;11.48;;
75488;SDS011;64069;46.396;48.102;2023-07-09T02:38:02;45.83;;;17.88;;
75488;SDS011;64069;46.396;48.102;2023-07-09T02:40:36;66.10;;;26.92;;
75488;SDS011;64069;46.396;48.102;2023-07-09T02:43:02;44.33;;;16.30;;
75488;SDS011;64069;46.396;48.102;2023-07-09T02:45:34;38.47;;;13.65;;
75488;SDS011;64069;46.396;48.102;2023-07-09T02:48:07;35.72;;;13.98;;
75488;SDS011;64069;46.396;48.102;2023-07-09T02:50:38;44.08;;;15.18;;
75488;SDS011;64069;46.396;48.102;2023-07-09T02:53:11;34.33;;;13.50;;
75488;SDS011;64069;46.396;48.102;2023-07-09T02:55:43;50.20;;;20.73;;
75488;SDS011;64069;46.396;48.102;2023-07-09T02:58:08;26.73;;;10.05;;
75488;SDS011;64069;46.396;48.102;2023-07-09T03:00:41;18.70;;;7.72;;
75488;SDS011;64069;46.396;48.102;2023-07-09T03:03:13;18.58;;;6.53;;
75488;SDS011;64069;46.396;48.102;2023-07-09T03:05:39;14.75;;;6.97;;
75488;SDS011;64069;46.396;48.102;2023-07-09T03:08:11;20.40;;;6.65;;
75488;SDS011;64069;46.396;48.102;2023-07-09T03:10:43;15.43;;;6.13;;
75488;SDS011;64069;46.396;48.102;2023-07-09T03:13:15;18.38;;;5.70;;
75488;SDS011;64069;46.396;48.102;2023-07-09T03:15:54;20.95;;;5.85;;
75488;SDS011;64069;46.396;48.102;2023-07-09T03:18:21;16.92;;;5.32;;
75488;SDS011;64069;46.396;48.102;2023-07-09T03:20:54;20.50;;;5.55;;
75488;SDS011;64069;46.396;48.102;2023-07-09T03:23:20;15.70;;;7.65;;
75488;SDS011;64069;46.396;48.102;2023-07-09T03:25:54;14.27;;;7.10;;
75488;SDS011;64069;46.396;48.102;2023-07-09T03:28:27;14.68;;;6.88;;
75488;SDS011;64069;46.396;48.102;2023-07-09T03:31:01;12.70;;;5.72;;
75488;SDS011;64069;46.396;48.102;2023-07-09T03:33:27;14.77;;;6.05;;
75488;SDS011;64069;46.396;48.102;2023-07-09T03:35:59;11.55;;;5.30;;
75488;SDS011;64069;46.396;48.102;2023-07-09T03:38:31;10.95;;;4.85;;
75488;SDS011;64069;46.396;48.102;2023-07-09T03:40:57;11.55;;;5.32;;
75488;SDS011;64069;46.396;48.102;2023-07-09T03:43:30;16.42;;;6.07;;
75488;SDS011;64069;46.396;48.102;2023-07-09T03:46:02;17.10;;;5.10;;
75488;SDS011;64069;46.396;48.102;2023-07-09T03:48:34;12.38;;;6.00;;
75488;SDS011;64069;46.396;48.102;2023-07-09T03:51:00;11.98;;;5.63;;
75488;SDS011;64069;46.396;48.102;2023-07-09T03:53:33;8.80;;;4.70;;
75488;SDS011;64069;46.396;48.102;2023-07-09T03:56:05;10.77;;;4.65;;
75488;SDS011;64069;46.396;48.102;2023-07-09T03:58:31;14.25;;;3.70;;
75488;SDS011;64069;46.396;48.102;2023-07-09T04:01:03;8.20;;;3.53;;
75488;SDS011;64069;46.396;48.102;2023-07-09T04:03:35;7.90;;;3.35;;
75488;SDS011;64069;46.396;48.102;2023-07-09T04:06:01;8.13;;;3.70;;
75488;SDS011;64069;46.396;48.102;2023-07-09T04:08:33;10.70;;;3.97;;
75488;SDS011;64069;46.396;48.102;2023-07-09T04:11:05;6.57;;;3.40;;
75488;SDS011;64069;46.396;48.102;2023-07-09T04:13:31;9.20;;;4.00;;
75488;SDS011;64069;46.396;48.102;2023-07-09T04:16:04;8.48;;;3.80;;
75488;SDS011;64069;46.396;48.102;2023-07-09T04:18:37;8.23;;;3.40;;
75488;SDS011;64069;46.396;48.102;2023-07-09T04:21:03;14.98;;;3.75;;
75488;SDS011;64069;46.396;48.102;2023-07-09T04:23:35;5.20;;;3.30;;
75488;SDS011;64069;46.396;48.102;2023-07-09T04:26:08;9.07;;;3.40;;
75488;SDS011;64069;46.396;48.102;2023-07-09T04:28:46;6.75;;;3.50;;
75488;SDS011;64069;46.396;48.102;2023-07-09T04:31:12;9.50;;;3.72;;
75488;SDS011;64069;46.396;48.102;2023-07-09T04:33:44;13.40;;;4.80;;
75488;SDS011;64069;46.396;48.102;2023-07-09T04:36:17;10.35;;;4.45;;
75488;SDS011;64069;46.396;48.102;2023-07-09T04:38:49;15.23;;;5.25;;
75488;SDS011;64069;46.396;48.102;2023-07-09T04:41:15;13.88;;;5.80;;
75488;SDS011;64069;46.396;48.102;2023-07-09T04:43:47;20.42;;;6.20;;
75488;SDS011;64069;46.396;48.102;2023-07-09T04:46:13;15.32;;;5.75;;
75488;SDS011;64069;46.396;48.102;2023-07-09T04:48:45;11.70;;;5.40;;
75488;SDS011;64069;46.396;48.102;2023-07-09T04:51:17;18.70;;;7.57;;
75488;SDS011;64069;46.396;48.102;2023-07-09T04:53:43;24.65;;;9.00;;
75488;SDS011;64069;46.396;48.102;2023-07-09T04:56:16;23.55;;;7.75;;
75488;SDS011;64069;46.396;48.102;2023-07-09T04:58:42;14.20;;;5.63;;
75488;SDS011;64069;46.396;48.102;2023-07-09T05:01:14;12.48;;;6.07;;
75488;SDS011;64069;46.396;48.102;2023-07-09T05:03:46;13.32;;;5.53;;
75488;SDS011;64069;46.396;48.102;2023-07-09T05:06:12;12.40;;;5.40;;
75488;SDS011;64069;46.396;48.102;2023-07-09T05:08:45;9.40;;;3.45;;
75488;SDS011;64069;46.396;48.102;2023-07-09T05:11:18;8.45;;;3.60;;
75488;SDS011;64069;46.396;48.102;2023-07-09T05:13:44;14.93;;;4.60;;
75488;SDS011;64069;46.396;48.102;2023-07-09T05:16:16;10.73;;;3.85;;
75488;SDS011;64069;46.396;48.102;2023-07-09T05:18:42;12.65;;;4.25;;
75488;SDS011;64069;46.396;48.102;2023-07-09T05:21:16;19.05;;;5.10;;
75488;SDS011;64069;46.396;48.102;2023-07-09T05:23:48;17.52;;;6.28;;
75488;SDS011;64069;46.396;48.102;2023-07-09T05:26:14;9.93;;;4.93;;
75488;SDS011;64069;46.396;48.102;2023-07-09T05:28:46;14.93;;;5.13;;
75488;SDS011;64069;46.396;48.102;2023-07-09T05:31:18;10.02;;;5.00;;
75488;SDS011;64069;46.396;48.102;2023-07-09T05:33:44;13.45;;;4.10;;
75488;SDS011;64069;46.396;48.102;2023-07-09T05:36:17;7.38;;;4.57;;
75488;SDS011;64069;46.396;48.102;2023-07-09T05:38:51;8.65;;;4.35;;
75488;SDS011;64069;46.396;48.102;2023-07-09T05:41:17;7.28;;;3.25;;
75488;SDS011;64069;46.396;48.102;2023-07-09T05:43:49;7.90;;;3.70;;
75488;SDS011;64069;46.396;48.102;2023-07-09T05:46:23;11.70;;;3.90;;
75488;SDS011;64069;46.396;48.102;2023-07-09T05:48:49;10.80;;;3.45;;
75488;SDS011;64069;46.396;48.102;2023-07-09T05:51:22;12.20;;;3.15;;
75488;SDS011;64069;46.396;48.102;2023-07-09T05:53:56;7.60;;;3.40;;
75488;SDS011;64069;46.396;48.102;2023-07-09T05:56:28;9.45;;;3.20;;
75488;SDS011;64069;46.396;48.102;2023-07-09T05:58:54;6.95;;;3.58;;
75488;SDS011;64069;46.396;48.102;2023-07-09T06:01:28;12.70;;;3.58;;
75488;SDS011;64069;46.396;48.102;2023-07-09T06:04:00;11.23;;;3.88;;
75488;SDS011;64069;46.396;48.102;2023-07-09T06:06:26;11.30;;;3.60;;
75488;SDS011;64069;46.396;48.102;2023-07-09T06:08:59;8.98;;;3.45;;
75488;SDS011;64069;46.396;48.102;2023-07-09T06:11:31;12.23;;;4.38;;
75488;SDS011;64069;46.396;48.102;2023-07-09T06:13:57;8.68;;;3.67;;
75488;SDS011;64069;46.396;48.102;2023-07-09T06:16:30;8.20;;;3.67;;
75488;SDS011;64069;46.396;48.102;2023-07-09T06:19:02;8.60;;;3.67;;
75488;SDS011;64069;46.396;48.102;2023-07-09T06:21:29;8.45;;;3.85;;
75488;SDS011;64069;46.396;48.102;2023-07-09T06:24:01;15.63;;;3.67;;
75488;SDS011;64069;46.396;48.102;2023-07-09T06:26:33;13.10;;;3.65;;
75488;SDS011;64069;46.396;48.102;2023-07-09T06:28:59;15.77;;;3.63;;
75488;SDS011;64069;46.396;48.102;2023-07-09T06:31:31;9.75;;;3.50;;
75488;SDS011;64069;46.396;48.102;2023-07-09T06:34:04;14.98;;;3.22;;
75488;SDS011;64069;46.396;48.102;2023-07-09T06:36:31;11.13;;;3.88;;
75488;SDS011;64069;46.396;48.102;2023-07-09T06:39:04;13.77;;;2.90;;
75488;SDS011;64069;46.396;48.102;2023-07-09T06:41:30;24.10;;;4.63;;
75488;SDS011;64069;46.396;48.102;2023-07-09T06:44:06;18.45;;;3.83;;
75488;SDS011;64069;46.396;48.102;2023-07-09T06:46:39;13.02;;;3.83;;
75488;SDS011;64069;46.396;48.102;2023-07-09T06:49:05;12.43;;;3.20;;
75488;SDS011;64069;46.396;48.102;2023-07-09T06:51:38;12.90;;;3.15;;
75488;SDS011;64069;46.396;48.102;2023-07-09T06:54:11;22.50;;;3.67;;
75488;SDS011;64069;46.396;48.102;2023-07-09T06:56:38;10.25;;;2.75;;
75488;SDS011;64069;46.396;48.102;2023-07-09T06:59:10;10.40;;;2.78;;
75488;SDS011;64069;46.396;48.102;2023-07-09T07:01:42;16.77;;;3.10;;
75488;SDS011;64069;46.396;48.102;2023-07-09T07:04:08;12.50;;;3.70;;
75488;SDS011;64069;46.396;48.102;2023-07-09T07:06:41;21.60;;;3.72;;
75488;SDS011;64069;46.396;48.102;2023-07-09T07:09:13;16.35;;;3.58;;
75488;SDS011;64069;46.396;48.102;2023-07-09T07:11:53;7.90;;;2.60;;
75488;SDS011;64069;46.396;48.102;2023-07-09T07:14:19;20.83;;;3.30;;
75488;SDS011;64069;46.396;48.102;2023-07-09T07:16:51;12.38;;;3.38;;
75488;SDS011;64069;46.396;48.102;2023-07-09T07:19:17;24.48;;;3.72;;
75488;SDS011;64069;46.396;48.102;2023-07-09T07:21:49;26.70;;;3.97;;
75488;SDS011;64069;46.396;48.102;2023-07-09T07:24:15;12.07;;;2.83;;
75488;SDS011;64069;46.396;48.102;2023-07-09T07:26:54;16.88;;;3.10;;
75488;SDS011;64069;46.396;48.102;2023-07-09T07:29:26;13.93;;;2.75;;
75488;SDS011;64069;46.396;48.102;2023-07-09T07:31:53;19.95;;;3.17;;
75488;SDS011;64069;46.396;48.102;2023-07-09T07:34:26;36.72;;;5.03;;
75488;SDS011;64069;46.396;48.102;2023-07-09T07:36:52;17.98;;;3.88;;
75488;SDS011;64069;46.396;48.102;2023-07-09T07:39:24;19.73;;;3.92;;
75488;SDS011;64069;46.396;48.102;2023-07-09T07:41:50;28.67;;;3.88;;
75488;SDS011;64069;46.396;48.102;2023-07-09T07:44:22;22.30;;;3.95;;
75488;SDS011;64069;46.396;48.102;2023-07-09T07:46:55;19.80;;;3.20;;
75488;SDS011;64069;46.396;48.102;2023-07-09T07:49:21;17.42;;;3.67;;
75488;SDS011;64069;46.396;48.102;2023-07-09T07:51:54;18.80;;;3.63;;
75488;SDS011;64069;46.396;48.102;2023-07-09T07:54:21;20.20;;;3.70;;
75488;SDS011;64069;46.396;48.102;2023-07-09T07:56:53;23.08;;;4.13;;
75488;SDS011;64069;46.396;48.102;2023-07-09T07:59:26;23.00;;;3.50;;
75488;SDS011;64069;46.396;48.102;2023-07-09T08:01:52;23.98;;;3.33;;
75488;SDS011;64069;46.396;48.102;2023-07-09T08:04:24;15.77;;;4.00;;
75488;SDS011;64069;46.396;48.102;2023-07-09T08:06:51;24.80;;;4.68;;
75488;SDS011;64069;46.396;48.102;2023-07-09T08:09:24;23.83;;;4.05;;
75488;SDS011;64069;46.396;48.102;2023-07-09T08:11:57;24.05;;;4.78;;
75488;SDS011;64069;46.396;48.102;2023-07-09T08:14:29;24.08;;;4.18;;
75488;SDS011;64069;46.396;48.102;2023-07-09T08:17:01;32.80;;;5.68;;
75488;SDS011;64069;46.396;48.102;2023-07-09T08:19:44;42.75;;;6.25;;
75488;SDS011;64069;46.396;48.102;2023-07-09T08:22:26;26.83;;;4.15;;
75488;SDS011;64069;46.396;48.102;2023-07-09T08:24:59;18.85;;;3.35;;
75488;SDS011;64069;46.396;48.102;2023-07-09T08:27:25;19.60;;;4.00;;
75488;SDS011;64069;46.396;48.102;2023-07-09T08:29:57;18.25;;;3.88;;
75488;SDS011;64069;46.396;48.102;2023-07-09T08:32:29;31.67;;;4.90;;
75488;SDS011;64069;46.396;48.102;2023-07-09T08:35:02;25.70;;;4.68;;
75488;SDS011;64069;46.396;48.102;2023-07-09T08:37:29;35.83;;;4.80;;
75488;SDS011;64069;46.396;48.102;2023-07-09T08:40:01;13.52;;;4.03;;
75488;SDS011;64069;46.396;48.102;2023-07-09T08:42:42;37.10;;;4.40;;
75488;SDS011;64069;46.396;48.102;2023-07-09T08:51:09;10.85;;;3.28;;
75488;SDS011;64069;46.396;48.102;2023-07-09T08:53:48;13.48;;;2.90;;
75488;SDS011;64069;46.396;48.102;2023-07-09T08:56:24;26.83;;;3.80;;
75488;SDS011;64069;46.396;48.102;2023-07-09T08:58:52;17.77;;;2.80;;
75488;SDS011;64069;46.396;48.102;2023-07-09T09:01:29;16.92;;;3.33;;
75488;SDS011;64069;46.396;48.102;2023-07-09T09:04:15;10.43;;;3.40;;
75488;SDS011;64069;46.396;48.102;2023-07-09T09:09:58;23.27;;;4.03;;
75488;SDS011;64069;46.396;48.102;2023-07-09T09:15:31;13.30;;;3.90;;
75488;SDS011;64069;46.396;48.102;2023-07-09T09:18:14;17.27;;;4.25;;
75488;SDS011;64069;46.396;48.102;2023-07-09T09:20:54;17.00;;;3.60;;
75488;SDS011;64069;46.396;48.102;2023-07-09T09:23:40;15.10;;;3.30;;
75488;SDS011;64069;46.396;48.102;2023-07-09T09:29:11;17.65;;;4.10;;
75488;SDS011;64069;46.396;48.102;2023-07-09T09:31:46;18.08;;;4.63;;
75488;SDS011;64069;46.396;48.102;2023-07-09T09:34:25;33.90;;;4.68;;
75488;SDS011;64069;46.396;48.102;2023-07-09T09:37:00;25.45;;;3.53;;
75488;SDS011;64069;46.396;48.102;2023-07-09T09:39:33;15.30;;;3.90;;
75488;SDS011;64069;46.396;48.102;2023-07-09T09:42:11;17.80;;;3.90;;
75488;SDS011;64069;46.396;48.102;2023-07-09T09:44:43;19.48;;;3.90;;
75488;SDS011;64069;46.396;48.102;2023-07-09T09:47:18;18.52;;;3.55;;
75488;SDS011;64069;46.396;48.102;2023-07-09T09:49:44;19.73;;;3.40;;
75488;SDS011;64069;46.396;48.102;2023-07-09T09:52:17;12.02;;;2.92;;
75488;SDS011;64069;46.396;48.102;2023-07-09T09:54:51;16.33;;;2.95;;
75488;SDS011;64069;46.396;48.102;2023-07-09T09:57:21;11.43;;;3.35;;
75488;SDS011;64069;46.396;48.102;2023-07-09T09:59:55;11.30;;;2.90;;
75488;SDS011;64069;46.396;48.102;2023-07-09T10:02:38;20.60;;;4.00;;
75488;SDS011;64069;46.396;48.102;2023-07-09T10:05:13;22.63;;;3.90;;
75488;SDS011;64069;46.396;48.102;2023-07-09T10:07:59;14.73;;;3.17;;
75488;SDS011;64069;46.396;48.102;2023-07-09T10:10:39;16.35;;;4.53;;
75488;SDS011;64069;46.396;48.102;2023-07-09T10:13:26;16.60;;;3.13;;
75488;SDS011;64069;46.396;48.102;2023-07-09T10:21:46;16.48;;;2.97;;
75488;SDS011;64069;46.396;48.102;2023-07-09T10:33:22;14.90;;;3.03;;
75488;SDS011;64069;46.396;48.102;2023-07-09T10:36:22;19.52;;;3.70;;
75488;SDS011;64069;46.396;48.102;2023-07-09T10:42:14;15.50;;;3.00;;
75488;SDS011;64069;46.396;48.102;2023-07-09T10:44:56;18.15;;;3.75;;
75488;SDS011;64069;46.396;48.102;2023-07-09T10:47:34;16.50;;;3.95;;
75488;SDS011;64069;46.396;48.102;2023-07-09T10:50:42;9.90;;;3.92;;
75488;SDS011;64069;46.396;48.102;2023-07-09T10:53:26;21.13;;;3.33;;
75488;SDS011;64069;46.396;48.102;2023-07-09T10:56:19;20.88;;;4.47;;
75488;SDS011;64069;46.396;48.102;2023-07-09T10:59:05;25.17;;;3.78;;
75488;SDS011;64069;46.396;48.102;2023-07-09T11:01:49;12.13;;;3.50;;
75488;SDS011;64069;46.396;48.102;2023-07-09T11:04:30;17.85;;;2.80;;
75488;SDS011;64069;46.396;48.102;2023-07-09T11:07:14;15.32;;;3.42;;
75488;SDS011;64069;46.396;48.102;2023-07-09T11:09:50;17.20;;;3.70;;
75488;SDS011;64069;46.396;48.102;2023-07-09T11:15:15;21.67;;;3.58;;
75488;SDS011;64069;46.396;48.102;2023-07-09T11:17:52;18.95;;;3.67;;
75488;SDS011;64069;46.396;48.102;2023-07-09T11:20:27;13.60;;;2.50;;
75488;SDS011;64069;46.396;48.102;2023-07-09T11:23:05;20.77;;;3.63;;
75488;SDS011;64069;46.396;48.102;2023-07-09T11:25:49;19.63;;;2.90;;
75488;SDS011;64069;46.396;48.102;2023-07-09T11:28:46;10.27;;;2.45;;
75488;SDS011;64069;46.396;48.102;2023-07-09T11:31:36;21.08;;;3.80;;
75488;SDS011;64069;46.396;48.102;2023-07-09T11:36:57;14.93;;;3.67;;
75488;SDS011;64069;46.396;48.102;2023-07-09T11:42:24;12.65;;;3.50;;
75488;SDS011;64069;46.396;48.102;2023-07-09T11:45:08;23.60;;;3.60;;
75488;SDS011;64069;46.396;48.102;2023-07-09T11:47:45;13.75;;;4.50;;
75488;SDS011;64069;46.396;48.102;2023-07-09T11:50:27;43.78;;;4.55;;
75488;SDS011;64069;46.396;48.102;2023-07-09T11:53:08;24.20;;;3.67;;
75488;SDS011;64069;46.396;48.102;2023-07-09T11:55:59;20.70;;;5.28;;
75488;SDS011;64069;46.396;48.102;2023-07-09T11:58:32;25.63;;;4.70;;
75488;SDS011;64069;46.396;48.102;2023-07-09T12:00:58;17.73;;;3.78;;
75488;SDS011;64069;46.396;48.102;2023-07-09T12:03:34;13.35;;;3.35;;
75488;SDS011;64069;46.396;48.102;2023-07-09T12:06:22;16.15;;;3.70;;
75488;SDS011;64069;46.396;48.102;2023-07-09T12:08:58;19.25;;;3.40;;
75488;SDS011;64069;46.396;48.102;2023-07-09T12:11:26;15.45;;;4.72;;
75488;SDS011;64069;46.396;48.102;2023-07-09T12:14:02;17.83;;;4.10;;
75488;SDS011;64069;46.396;48.102;2023-07-09T12:16:38;21.35;;;3.38;;
75488;SDS011;64069;46.396;48.102;2023-07-09T12:19:19;20.27;;;3.78;;
75488;SDS011;64069;46.396;48.102;2023-07-09T12:21:57;24.60;;;3.80;;
75488;SDS011;64069;46.396;48.102;2023-07-09T12:24:35;17.35;;;4.25;;
75488;SDS011;64069;46.396;48.102;2023-07-09T12:27:20;25.17;;;4.07;;
75488;SDS011;64069;46.396;48.102;2023-07-09T12:32:42;20.60;;;3.47;;
75488;SDS011;64069;46.396;48.102;2023-07-09T12:35:16;15.13;;;2.85;;
75488;SDS011;64069;46.396;48.102;2023-07-09T12:37:50;20.10;;;3.00;;
75488;SDS011;64069;46.396;48.102;2023-07-09T12:40:27;21.98;;;3.53;;
75488;SDS011;64069;46.396;48.102;2023-07-09T12:43:02;21.23;;;3.88;;
75488;SDS011;64069;46.396;48.102;2023-07-09T12:45:35;13.63;;;3.22;;
75488;SDS011;64069;46.396;48.102;2023-07-09T12:48:07;17.73;;;3.92;;
75488;SDS011;64069;46.396;48.102;2023-07-09T12:50:48;17.88;;;2.80;;
75488;SDS011;64069;46.396;48.102;2023-07-09T12:53:23;19.52;;;3.10;;
75488;SDS011;64069;46.396;48.102;2023-07-09T12:55:51;12.73;;;2.90;;
75488;SDS011;64069;46.396;48.102;2023-07-09T12:58:32;16.08;;;2.80;;
75488;SDS011;64069;46.396;48.102;2023-07-09T13:01:13;14.15;;;2.90;;
75488;SDS011;64069;46.396;48.102;2023-07-09T13:03:54;16.77;;;3.40;;
75488;SDS011;64069;46.396;48.102;2023-07-09T13:06:28;9.07;;;3.03;;
75488;SDS011;64069;46.396;48.102;2023-07-09T13:09:10;14.07;;;3.03;;
75488;SDS011;64069;46.396;48.102;2023-07-09T13:11:48;16.27;;;3.28;;
75488;SDS011;64069;46.396;48.102;2023-07-09T13:14:23;9.13;;;2.85;;
75488;SDS011;64069;46.396;48.102;2023-07-09T13:17:04;19.35;;;3.55;;
75488;SDS011;64069;46.396;48.102;2023-07-09T13:19:42;20.35;;;3.10;;
75488;SDS011;64069;46.396;48.102;2023-07-09T13:22:07;16.13;;;2.60;;
75488;SDS011;64069;46.396;48.102;2023-07-09T13:24:48;15.93;;;2.58;;
75488;SDS011;64069;46.396;48.102;2023-07-09T13:27:27;7.95;;;2.70;;
75488;SDS011;64069;46.396;48.102;2023-07-09T13:30:07;21.23;;;3.25;;
75488;SDS011;64069;46.396;48.102;2023-07-09T13:32:33;13.88;;;2.97;;
75488;SDS011;64069;46.396;48.102;2023-07-09T13:35:16;21.77;;;3.38;;
75488;SDS011;64069;46.396;48.102;2023-07-09T13:37:50;14.23;;;2.85;;
75488;SDS011;64069;46.396;48.102;2023-07-09T13:42:56;12.13;;;2.55;;
75488;SDS011;64069;46.396;48.102;2023-07-09T13:45:28;13.45;;;2.83;;
75488;SDS011;64069;46.396;48.102;2023-07-09T13:47:54;25.73;;;3.67;;
75488;SDS011;64069;46.396;48.102;2023-07-09T13:50:26;17.20;;;3.83;;
75488;SDS011;64069;46.396;48.102;2023-07-09T13:52:58;25.75;;;3.33;;
75488;SDS011;64069;46.396;48.102;2023-07-09T13:55:31;12.43;;;2.83;;
75488;SDS011;64069;46.396;48.102;2023-07-09T13:57:57;17.65;;;2.80;;
75488;SDS011;64069;46.396;48.102;2023-07-09T14:00:29;19.73;;;3.00;;
75488;SDS011;64069;46.396;48.102;2023-07-09T14:03:01;12.00;;;2.90;;
75488;SDS011;64069;46.396;48.102;2023-07-09T14:05:28;9.63;;;2.70;;
75488;SDS011;64069;46.396;48.102;2023-07-09T14:08:00;10.18;;;2.80;;
75488;SDS011;64069;46.396;48.102;2023-07-09T14:10:26;20.40;;;2.80;;
75488;SDS011;64069;46.396;48.102;2023-07-09T14:12:59;14.25;;;2.97;;
75488;SDS011;64069;46.396;48.102;2023-07-09T14:15:34;17.42;;;4.10;;
75488;SDS011;64069;46.396;48.102;2023-07-09T14:18:00;13.95;;;2.72;;
75488;SDS011;64069;46.396;48.102;2023-07-09T14:20:33;10.30;;;2.25;;
75488;SDS011;64069;46.396;48.102;2023-07-09T14:22:59;11.40;;;2.65;;
75488;SDS011;64069;46.396;48.102;2023-07-09T14:25:32;12.43;;;3.30;;
75488;SDS011;64069;46.396;48.102;2023-07-09T14:27:58;13.68;;;4.05;;
75488;SDS011;64069;46.396;48.102;2023-07-09T14:30:30;8.07;;;2.35;;
75488;SDS011;64069;46.396;48.102;2023-07-09T14:33:02;16.90;;;2.97;;
75488;SDS011;64069;46.396;48.102;2023-07-09T14:35:30;14.07;;;3.67;;
75488;SDS011;64069;46.396;48.102;2023-07-09T14:38:04;15.27;;;3.38;;
75488;SDS011;64069;46.396;48.102;2023-07-09T14:40:45;13.77;;;2.65;;
75488;SDS011;64069;46.396;48.102;2023-07-09T14:43:32;17.83;;;3.13;;
75488;SDS011;64069;46.396;48.102;2023-07-09T14:46:04;16.05;;;3.55;;
75488;SDS011;64069;46.396;48.102;2023-07-09T14:48:30;19.13;;;3.80;;
75488;SDS011;64069;46.396;48.102;2023-07-09T14:51:07;16.73;;;3.53;;
75488;SDS011;64069;46.396;48.102;2023-07-09T14:53:51;13.77;;;3.03;;
75488;SDS011;64069;46.396;48.102;2023-07-09T14:56:17;14.55;;;3.70;;
75488;SDS011;64069;46.396;48.102;2023-07-09T14:58:49;17.58;;;3.25;;
75488;SDS011;64069;46.396;48.102;2023-07-09T15:01:21;13.90;;;3.13;;
75488;SDS011;64069;46.396;48.102;2023-07-09T15:03:49;12.75;;;3.30;;
75488;SDS011;64069;46.396;48.102;2023-07-09T15:06:23;15.60;;;3.22;;
75488;SDS011;64069;46.396;48.102;2023-07-09T15:08:56;14.63;;;3.50;;
75488;SDS011;64069;46.396;48.102;2023-07-09T15:11:22;14.07;;;3.53;;
75488;SDS011;64069;46.396;48.102;2023-07-09T15:13:54;17.48;;;3.80;;
75488;SDS011;64069;46.396;48.102;2023-07-09T15:16:27;19.17;;;4.60;;
75488;SDS011;64069;46.396;48.102;2023-07-09T15:18:59;17.42;;;4.05;;
75488;SDS011;64069;46.396;48.102;2023-07-09T15:21:25;19.90;;;4.00;;
75488;SDS011;64069;46.396;48.102;2023-07-09T15:23:57;14.60;;;4.28;;
75488;SDS011;64069;46.396;48.102;2023-07-09T15:26:29;16.90;;;4.22;;
75488;SDS011;64069;46.396;48.102;2023-07-09T15:28:56;14.02;;;4.00;;
75488;SDS011;64069;46.396;48.102;2023-07-09T15:31:29;16.05;;;3.90;;
75488;SDS011;64069;46.396;48.102;2023-07-09T15:33:55;19.45;;;5.00;;
75488;SDS011;64069;46.396;48.102;2023-07-09T15:36:29;16.27;;;5.22;;
75488;SDS011;64069;46.396;48.102;2023-07-09T15:38:54;14.93;;;5.35;;
75488;SDS011;64069;46.396;48.102;2023-07-09T15:41:27;23.65;;;7.10;;
75488;SDS011;64069;46.396;48.102;2023-07-09T15:44:13;16.60;;;4.05;;
75488;SDS011;64069;46.396;48.102;2023-07-09T15:46:51;20.47;;;5.33;;